Time;durP1;ratioP1;P1;durP2;ratioP2;P2;SDS_P1;SDS_P2;PMS_P1;PMS_P2;Temp;Humidity;BMP_temperature;BMP_pressure;BME280_temperature;BME280_humidity;BME280_pressure;Samples;Min_cycle;Max_cycle;Signal;HPM_P1;HPM_P2
2023/01/20 00:01:22;;;;;;;24.10;14.65;;;;;;;;;;5047997;28;20205;-64
2023/01/20 00:03:50;;;;;;;15.65;11.60;;;;;;;;;;5044787;28;20648;-64
2023/01/20 00:06:19;;;;;;;24.50;15.13;;;;;;;;;;5044603;28;20211;-60
2023/01/20 00:08:50;;;;;;;15.07;11.70;;;;;;;;;;5051329;28;20678;-62
2023/01/20 00:11:19;;;;;;;19.60;13.48;;;;;;;;;;5051272;28;20668;-62
2023/01/20 00:13:47;;;;;;;34.28;17.85;;;;;;;;;;5044125;28;20223;-61
2023/01/20 00:16:14;;;;;;;32.45;16.25;;;;;;;;;;5035356;28;20229;-62
2023/01/20 00:18:42;;;;;;;37.70;18.67;;;;;;;;;;5033863;28;20196;-62
2023/01/20 00:21:12;;;;;;;17.98;11.93;;;;;;;;;;5044670;28;20197;-62
2023/01/20 00:23:42;;;;;;;19.52;12.75;;;;;;;;;;5035847;28;20243;-62
2023/01/20 00:26:11;;;;;;;14.57;10.15;;;;;;;;;;5050005;28;20215;-63
2023/01/20 00:28:39;;;;;;;19.45;13.30;;;;;;;;;;5057828;28;20210;-62
2023/01/20 00:31:11;;;;;;;15.82;12.68;;;;;;;;;;5058189;28;20652;-62
2023/01/20 00:33:40;;;;;;;22.75;12.23;;;;;;;;;;5057442;28;20200;-62
2023/01/20 00:36:08;;;;;;;37.08;18.05;;;;;;;;;;5038408;28;20201;-63
2023/01/20 00:38:36;;;;;;;22.55;13.45;;;;;;;;;;5040531;28;20204;-61
2023/01/20 00:41:06;;;;;;;38.13;16.48;;;;;;;;;;5038078;28;20204;-61
2023/01/20 00:43:34;;;;;;;22.92;13.30;;;;;;;;;;5037646;28;20201;-61
2023/01/20 00:46:02;;;;;;;20.13;13.52;;;;;;;;;;5037877;28;20254;-61
2023/01/20 00:48:31;;;;;;;21.30;14.00;;;;;;;;;;5044814;28;20201;-61
2023/01/20 00:50:59;;;;;;;19.98;12.27;;;;;;;;;;5043152;28;20523;-62
2023/01/20 00:53:27;;;;;;;19.73;12.55;;;;;;;;;;5045007;28;20582;-62
2023/01/20 00:55:55;;;;;;;26.85;12.55;;;;;;;;;;5038018;28;20205;-62
2023/01/20 00:58:25;;;;;;;22.88;14.85;;;;;;;;;;5046411;28;20582;-63
2023/01/20 01:00:54;;;;;;;30.45;18.35;;;;;;;;;;5045533;28;20197;-61
2023/01/20 01:03:22;;;;;;;21.38;13.70;;;;;;;;;;5036848;28;20609;-62
2023/01/20 01:05:50;;;;;;;24.13;15.13;;;;;;;;;;5045629;28;20571;-62
2023/01/20 01:08:20;;;;;;;23.50;14.93;;;;;;;;;;5057760;28;20686;-62
2023/01/20 01:10:48;;;;;;;26.20;17.05;;;;;;;;;;5043321;28;20188;-62
2023/01/20 01:13:16;;;;;;;23.30;13.82;;;;;;;;;;5058010;28;20699;-62
2023/01/20 01:15:50;;;;;;;25.77;15.63;;;;;;;;;;5057375;28;20240;-62
2023/01/20 01:18:18;;;;;;;24.50;15.95;;;;;;;;;;5039130;28;20208;-62
2023/01/20 01:20:46;;;;;;;19.98;13.02;;;;;;;;;;5038444;28;20227;-62
2023/01/20 01:23:14;;;;;;;23.92;13.40;;;;;;;;;;5036968;28;20217;-61
2023/01/20 01:25:41;;;;;;;20.83;13.13;;;;;;;;;;5037933;28;20575;-61
2023/01/20 01:28:09;;;;;;;27.60;13.70;;;;;;;;;;5043137;28;20205;-62
2023/01/20 01:30:37;;;;;;;25.25;14.50;;;;;;;;;;5057733;28;20223;-62
2023/01/20 01:33:07;;;;;;;22.95;14.30;;;;;;;;;;5050590;28;20204;-61
2023/01/20 01:35:35;;;;;;;19.90;13.93;;;;;;;;;;5048951;28;20211;-62
2023/01/20 01:38:03;;;;;;;20.92;13.48;;;;;;;;;;5054727;28;20203;-63
2023/01/20 01:40:30;;;;;;;23.02;15.02;;;;;;;;;;5054604;28;20204;-62
2023/01/20 01:42:58;;;;;;;22.30;13.90;;;;;;;;;;5054605;28;20560;-62
2023/01/20 01:45:28;;;;;;;32.28;21.00;;;;;;;;;;5054510;28;20216;-61
2023/01/20 01:48:02;;;;;;;23.67;15.77;;;;;;;;;;5054341;28;20223;-62
2023/01/20 01:50:34;;;;;;;21.17;13.80;;;;;;;;;;5045958;28;20188;-62
2023/01/20 01:53:02;;;;;;;20.38;14.70;;;;;;;;;;5034866;28;20194;-62
2023/01/20 01:55:30;;;;;;;19.98;13.40;;;;;;;;;;5034542;28;20221;-62
2023/01/20 01:57:59;;;;;;;28.00;15.90;;;;;;;;;;5034345;28;20205;-62
2023/01/20 02:00:27;;;;;;;21.98;14.30;;;;;;;;;;5034186;28;20677;-62
2023/01/20 02:02:57;;;;;;;21.75;13.93;;;;;;;;;;5033528;28;20251;-62
2023/01/20 02:05:27;;;;;;;24.90;15.40;;;;;;;;;;5038785;28;20201;-61
2023/01/20 02:07:58;;;;;;;23.30;14.90;;;;;;;;;;5054254;28;20211;-61
2023/01/20 02:10:27;;;;;;;24.30;14.75;;;;;;;;;;5045685;28;20189;-62
2023/01/20 02:12:55;;;;;;;31.55;16.70;;;;;;;;;;5034084;28;20208;-62
2023/01/20 02:15:26;;;;;;;20.60;12.93;;;;;;;;;;5033924;28;20233;-63
2023/01/20 02:18:01;;;;;;;16.50;12.07;;;;;;;;;;5034278;28;20598;-62
2023/01/20 02:20:48;;;;;;;21.70;13.90;;;;;;;;;;5033702;28;20204;-62
2023/01/20 02:23:25;;;;;;;18.45;12.30;;;;;;;;;;5047707;28;20230;-62
2023/01/20 02:26:11;;;;;;;21.23;12.80;;;;;;;;;;5053704;28;20192;-62
2023/01/20 02:29:00;;;;;;;19.05;13.35;;;;;;;;;;5043911;28;20200;-61
2023/01/20 02:31:52;;;;;;;18.17;12.90;;;;;;;;;;5054209;28;20193;-62
2023/01/20 02:34:25;;;;;;;17.13;13.05;;;;;;;;;;5052123;28;20670;-62
2023/01/20 02:36:56;;;;;;;20.50;13.57;;;;;;;;;;5053821;28;20188;-63
2023/01/20 02:39:28;;;;;;;19.08;13.60;;;;;;;;;;5053900;28;20259;-64
2023/01/20 02:41:59;;;;;;;20.63;13.70;;;;;;;;;;5053112;28;20189;-61
2023/01/20 02:44:29;;;;;;;22.00;13.15;;;;;;;;;;5053073;28;20204;-62
2023/01/20 02:47:00;;;;;;;22.98;13.85;;;;;;;;;;5052703;28;20205;-63
2023/01/20 02:49:33;;;;;;;22.23;12.85;;;;;;;;;;5053101;28;20196;-62
2023/01/20 02:52:03;;;;;;;20.20;12.82;;;;;;;;;;5053866;28;20185;-63
2023/01/20 02:54:33;;;;;;;18.30;12.27;;;;;;;;;;5047821;28;20210;-64
2023/01/20 02:57:03;;;;;;;19.25;11.93;;;;;;;;;;5042464;28;20687;-62
2023/01/20 02:59:32;;;;;;;18.55;12.13;;;;;;;;;;5050365;28;20683;-63
2023/01/20 03:02:03;;;;;;;15.45;12.05;;;;;;;;;;5031787;28;20205;-62
2023/01/20 03:04:35;;;;;;;19.70;11.95;;;;;;;;;;5037352;28;20188;-62
2023/01/20 03:07:04;;;;;;;16.23;12.05;;;;;;;;;;5052940;28;20192;-62
2023/01/20 03:09:36;;;;;;;21.55;11.82;;;;;;;;;;5053010;28;20205;-63
2023/01/20 03:12:08;;;;;;;21.90;13.45;;;;;;;;;;5050176;28;20639;-63
2023/01/20 03:14:36;;;;;;;15.90;12.13;;;;;;;;;;5051165;28;20223;-63
2023/01/20 03:17:04;;;;;;;20.63;12.55;;;;;;;;;;5050483;28;20204;-62
2023/01/20 03:19:33;;;;;;;18.08;12.15;;;;;;;;;;5042813;28;20197;-62
2023/01/20 03:22:01;;;;;;;18.02;12.27;;;;;;;;;;5047757;28;20202;-63
2023/01/20 03:24:30;;;;;;;17.77;11.13;;;;;;;;;;5047308;28;20193;-62
2023/01/20 03:26:58;;;;;;;16.58;11.43;;;;;;;;;;5033833;28;20203;-62
2023/01/20 03:29:27;;;;;;;15.32;10.95;;;;;;;;;;5032970;28;20201;-63
2023/01/20 03:31:57;;;;;;;21.38;11.93;;;;;;;;;;5032606;28;20584;-62
2023/01/20 03:34:26;;;;;;;18.35;10.73;;;;;;;;;;5034673;28;20210;-62
2023/01/20 03:36:56;;;;;;;17.45;11.57;;;;;;;;;;5051413;28;20211;-62
2023/01/20 03:39:25;;;;;;;15.50;11.23;;;;;;;;;;5048924;28;20668;-62
2023/01/20 03:41:56;;;;;;;13.98;9.88;;;;;;;;;;5032558;28;20194;-64
2023/01/20 03:44:28;;;;;;;13.18;9.20;;;;;;;;;;5032531;28;20190;-63
2023/01/20 03:46:59;;;;;;;14.55;9.20;;;;;;;;;;5032671;28;20194;-65
2023/01/20 03:49:29;;;;;;;10.98;8.93;;;;;;;;;;5037362;28;20195;-64
2023/01/20 03:52:03;;;;;;;14.35;10.15;;;;;;;;;;5052574;28;20185;-64
2023/01/20 03:54:35;;;;;;;14.55;9.10;;;;;;;;;;5052169;28;20212;-63
2023/01/20 03:57:06;;;;;;;13.43;8.25;;;;;;;;;;5051085;28;20234;-63
2023/01/20 03:59:35;;;;;;;10.40;9.15;;;;;;;;;;5049714;28;20677;-63
2023/01/20 04:02:04;;;;;;;11.63;7.30;;;;;;;;;;5040121;28;20201;-62
2023/01/20 04:04:35;;;;;;;12.23;8.52;;;;;;;;;;5051297;28;20254;-61
2023/01/20 04:07:06;;;;;;;14.43;9.10;;;;;;;;;;5052339;28;20204;-59
2023/01/20 04:09:37;;;;;;;12.07;8.32;;;;;;;;;;5050050;28;20208;-62
2023/01/20 04:12:05;;;;;;;11.40;8.15;;;;;;;;;;5052097;28;20262;-62
2023/01/20 04:14:35;;;;;;;11.45;8.25;;;;;;;;;;5048180;28;20227;-62
2023/01/20 04:17:06;;;;;;;9.93;6.75;;;;;;;;;;5041279;28;20536;-63
2023/01/20 04:19:34;;;;;;;11.88;8.18;;;;;;;;;;5052147;28;20214;-63
2023/01/20 04:22:05;;;;;;;13.15;7.95;;;;;;;;;;5038623;28;20208;-63
2023/01/20 04:24:38;;;;;;;10.95;8.43;;;;;;;;;;5032263;28;20583;-63
2023/01/20 04:27:06;;;;;;;8.77;7.43;;;;;;;;;;5032511;28;20185;-62
2023/01/20 04:29:34;;;;;;;10.45;7.60;;;;;;;;;;5032073;28;20213;-64
2023/01/20 04:32:03;;;;;;;9.18;7.38;;;;;;;;;;5033083;28;20215;-66
2023/01/20 04:34:31;;;;;;;13.98;9.02;;;;;;;;;;5048113;28;20208;-64
2023/01/20 04:37:00;;;;;;;10.07;7.78;;;;;;;;;;5041756;28;20231;-64
2023/01/20 04:39:29;;;;;;;12.30;7.80;;;;;;;;;;5034088;28;20205;-65
2023/01/20 04:41:58;;;;;;;11.23;8.00;;;;;;;;;;5049240;28;20205;-64
2023/01/20 04:44:26;;;;;;;9.70;7.47;;;;;;;;;;5032306;28;20733;-64
2023/01/20 04:46:57;;;;;;;16.23;8.18;;;;;;;;;;5033199;28;20209;-65
2023/01/20 04:49:25;;;;;;;9.65;7.53;;;;;;;;;;5032958;28;20664;-64
2023/01/20 04:51:53;;;;;;;13.27;8.95;;;;;;;;;;5032786;28;20568;-64
2023/01/20 04:54:21;;;;;;;15.20;9.10;;;;;;;;;;5033182;28;20205;-64
2023/01/20 04:56:49;;;;;;;13.00;7.57;;;;;;;;;;5033089;28;20548;-63
2023/01/20 04:59:19;;;;;;;11.32;8.65;;;;;;;;;;5032934;28;20656;-63
2023/01/20 05:01:47;;;;;;;12.70;9.50;;;;;;;;;;5041326;28;20203;-64
2023/01/20 05:04:15;;;;;;;15.25;9.23;;;;;;;;;;5034637;28;20206;-64
2023/01/20 05:06:43;;;;;;;14.40;8.57;;;;;;;;;;5032299;28;20197;-64
2023/01/20 05:09:12;;;;;;;11.63;9.10;;;;;;;;;;5034579;28;20203;-64
2023/01/20 05:11:40;;;;;;;11.27;8.27;;;;;;;;;;5044967;28;20197;-64
2023/01/20 05:14:08;;;;;;;15.52;8.80;;;;;;;;;;5047627;28;20205;-64
2023/01/20 05:16:38;;;;;;;11.65;8.10;;;;;;;;;;5036839;28;20225;-64
2023/01/20 05:19:06;;;;;;;10.13;7.88;;;;;;;;;;5043060;28;20219;-65
2023/01/20 05:21:34;;;;;;;13.02;9.20;;;;;;;;;;5055477;28;20568;-63
2023/01/20 05:24:02;;;;;;;13.68;8.80;;;;;;;;;;5055467;28;20232;-63
2023/01/20 05:26:31;;;;;;;11.65;8.45;;;;;;;;;;5054552;28;20200;-63
2023/01/20 05:28:59;;;;;;;8.90;8.00;;;;;;;;;;5055214;28;20212;-64
2023/01/20 05:31:27;;;;;;;12.55;8.70;;;;;;;;;;5047414;28;20207;-63
2023/01/20 05:33:57;;;;;;;10.55;8.00;;;;;;;;;;5034967;28;20228;-62
2023/01/20 05:36:27;;;;;;;10.65;8.10;;;;;;;;;;5034545;28;20707;-63
2023/01/20 05:38:55;;;;;;;14.23;9.23;;;;;;;;;;5035699;28;20561;-64
2023/01/20 05:41:23;;;;;;;13.40;8.65;;;;;;;;;;5034782;28;20684;-62
2023/01/20 05:43:53;;;;;;;13.77;9.10;;;;;;;;;;5035061;28;20216;-63
2023/01/20 05:46:21;;;;;;;12.25;8.82;;;;;;;;;;5043824;28;20200;-62
2023/01/20 05:48:49;;;;;;;14.70;7.70;;;;;;;;;;5054689;28;20230;-63
2023/01/20 05:51:18;;;;;;;14.00;9.13;;;;;;;;;;5050284;28;20205;-61
2023/01/20 05:53:47;;;;;;;8.88;7.20;;;;;;;;;;5043456;28;20202;-61
2023/01/20 05:56:15;;;;;;;13.80;8.13;;;;;;;;;;5042654;28;20648;-62
2023/01/20 05:58:44;;;;;;;10.32;8.82;;;;;;;;;;5054195;28;20201;-63
2023/01/20 06:01:13;;;;;;;14.20;9.75;;;;;;;;;;5052504;28;20257;-62
2023/01/20 06:03:41;;;;;;;11.45;9.07;;;;;;;;;;5040488;28;20204;-62
2023/01/20 06:06:13;;;;;;;12.70;8.90;;;;;;;;;;5034464;28;20201;-62
2023/01/20 06:08:42;;;;;;;11.25;8.98;;;;;;;;;;5034493;28;20193;-62
2023/01/20 06:11:12;;;;;;;15.90;10.30;;;;;;;;;;5041003;28;20189;-62
2023/01/20 06:13:40;;;;;;;14.27;9.55;;;;;;;;;;5046512;28;20209;-63
2023/01/20 06:16:08;;;;;;;18.77;11.30;;;;;;;;;;5042673;28;20274;-60
2023/01/20 06:18:36;;;;;;;21.77;11.57;;;;;;;;;;5053787;28;20226;-60
2023/01/20 06:21:05;;;;;;;18.23;9.95;;;;;;;;;;5053755;28;20209;-63
2023/01/20 06:23:33;;;;;;;16.48;10.70;;;;;;;;;;5053849;28;20233;-62
2023/01/20 06:26:04;;;;;;;20.38;11.18;;;;;;;;;;5044062;28;20251;-61
2023/01/20 06:28:33;;;;;;;14.70;9.98;;;;;;;;;;5033870;28;20660;-61
2023/01/20 06:31:02;;;;;;;15.45;9.43;;;;;;;;;;5036655;28;20258;-62
2023/01/20 06:33:30;;;;;;;13.95;9.68;;;;;;;;;;5050742;28;20663;-62
2023/01/20 06:35:59;;;;;;;15.98;9.57;;;;;;;;;;5052318;28;20729;-61
2023/01/20 06:38:29;;;;;;;13.95;10.65;;;;;;;;;;5035600;28;20211;-61
2023/01/20 06:40:58;;;;;;;19.25;11.70;;;;;;;;;;5034174;28;20661;-60
2023/01/20 06:43:28;;;;;;;14.80;12.38;;;;;;;;;;5053800;28;20273;-61
2023/01/20 06:45:59;;;;;;;17.00;11.23;;;;;;;;;;5046088;28;20190;-61
2023/01/20 06:48:28;;;;;;;19.95;12.60;;;;;;;;;;5035664;28;21299;-61
2023/01/20 06:51:01;;;;;;;21.08;13.20;;;;;;;;;;5051414;28;20253;-62
2023/01/20 06:53:29;;;;;;;19.20;12.88;;;;;;;;;;5053489;28;20195;-63
2023/01/20 06:56:00;;;;;;;15.98;10.52;;;;;;;;;;5045460;28;20607;-64
2023/01/20 06:58:30;;;;;;;17.58;11.73;;;;;;;;;;5048032;28;20196;-62
2023/01/20 07:00:59;;;;;;;19.95;11.50;;;;;;;;;;5052838;28;20572;-63
2023/01/20 07:03:30;;;;;;;18.17;11.88;;;;;;;;;;5052486;28;20613;-62
2023/01/20 07:05:59;;;;;;;19.90;10.88;;;;;;;;;;5052445;28;20254;-64
2023/01/20 07:08:27;;;;;;;24.88;12.50;;;;;;;;;;5052835;28;20206;-63
2023/01/20 07:10:56;;;;;;;16.50;11.52;;;;;;;;;;5053752;28;20211;-62
2023/01/20 07:13:24;;;;;;;20.63;11.45;;;;;;;;;;5052813;28;20205;-62
2023/01/20 07:15:53;;;;;;;17.50;11.20;;;;;;;;;;5039326;28;20228;-62
2023/01/20 07:18:22;;;;;;;19.55;11.60;;;;;;;;;;5036447;28;20208;-62
2023/01/20 07:20:53;;;;;;;16.88;11.85;;;;;;;;;;5045271;28;20204;-63
2023/01/20 07:23:21;;;;;;;17.27;12.90;;;;;;;;;;5039787;28;20228;-61
2023/01/20 07:25:57;;;;;;;18.73;11.65;;;;;;;;;;5032244;28;20208;-64
2023/01/20 07:28:25;;;;;;;19.13;12.55;;;;;;;;;;5039329;28;20192;-63
2023/01/20 07:30:55;;;;;;;21.55;12.70;;;;;;;;;;5052482;28;20212;-63
2023/01/20 07:33:23;;;;;;;21.67;13.60;;;;;;;;;;5044721;28;20675;-63
2023/01/20 07:35:52;;;;;;;22.92;13.75;;;;;;;;;;5045275;28;20242;-64
2023/01/20 07:38:21;;;;;;;20.75;12.82;;;;;;;;;;5050884;28;20203;-63
2023/01/20 07:40:49;;;;;;;26.40;13.63;;;;;;;;;;5034340;28;20577;-64
2023/01/20 07:43:17;;;;;;;20.17;14.55;;;;;;;;;;5045980;28;20213;-62
2023/01/20 07:45:45;;;;;;;23.90;14.75;;;;;;;;;;5041365;28;20205;-63
2023/01/20 07:48:15;;;;;;;20.35;14.38;;;;;;;;;;5037928;28;20190;-63
2023/01/20 07:50:43;;;;;;;18.35;13.80;;;;;;;;;;5039753;28;20205;-63
2023/01/20 07:53:11;;;;;;;23.92;16.13;;;;;;;;;;5032142;28;20270;-63
2023/01/20 07:55:40;;;;;;;23.65;15.05;;;;;;;;;;5033347;28;20361;-63
2023/01/20 07:58:07;;;;;;;21.88;15.38;;;;;;;;;;5045214;28;20224;-64
2023/01/20 08:00:35;;;;;;;23.77;16.20;;;;;;;;;;5042597;28;20196;-64
2023/01/20 08:03:03;;;;;;;33.60;17.63;;;;;;;;;;5040932;28;20415;-64
2023/01/20 08:05:33;;;;;;;23.70;15.98;;;;;;;;;;5035174;28;20209;-64
2023/01/20 08:08:01;;;;;;;24.58;18.33;;;;;;;;;;5032224;28;20551;-64
2023/01/20 08:10:29;;;;;;;22.73;14.93;;;;;;;;;;5035608;28;20207;-63
2023/01/20 08:12:58;;;;;;;22.52;16.08;;;;;;;;;;5047104;28;20197;-62
2023/01/20 08:15:26;;;;;;;21.73;15.45;;;;;;;;;;5050827;28;20244;-63
2023/01/20 08:17:54;;;;;;;26.90;16.02;;;;;;;;;;5044288;28;20254;-62
2023/01/20 08:20:22;;;;;;;25.30;16.17;;;;;;;;;;5030473;28;20201;-63
2023/01/20 08:22:52;;;;;;;21.58;15.68;;;;;;;;;;5031298;28;20656;-62
2023/01/20 08:25:20;;;;;;;19.77;14.63;;;;;;;;;;5045062;28;20204;-63
2023/01/20 08:27:49;;;;;;;23.30;14.60;;;;;;;;;;5042549;28;20694;-64
2023/01/20 08:30:17;;;;;;;22.65;14.80;;;;;;;;;;5043985;28;20211;-64
2023/01/20 08:32:44;;;;;;;28.20;16.67;;;;;;;;;;5040926;28;20575;-63
2023/01/20 08:35:12;;;;;;;20.90;13.95;;;;;;;;;;5050326;28;20212;-63
2023/01/20 08:37:40;;;;;;;22.95;15.15;;;;;;;;;;5049423;28;20717;-63
2023/01/20 08:40:11;;;;;;;21.40;14.80;;;;;;;;;;5052083;28;20208;-63
2023/01/20 08:42:39;;;;;;;21.75;14.43;;;;;;;;;;5037926;28;20667;-63
2023/01/20 08:45:08;;;;;;;19.38;14.60;;;;;;;;;;5033481;28;20205;-63
2023/01/20 08:47:36;;;;;;;24.08;15.05;;;;;;;;;;5047969;28;20204;-63
2023/01/20 08:50:04;;;;;;;19.20;13.43;;;;;;;;;;5047170;28;20568;-62
2023/01/20 08:52:32;;;;;;;19.40;14.65;;;;;;;;;;5044513;28;20196;-63
2023/01/20 08:55:00;;;;;;;19.20;14.60;;;;;;;;;;5037641;28;20201;-62
2023/01/20 08:57:30;;;;;;;19.33;14.80;;;;;;;;;;5049778;28;20718;-62
2023/01/20 08:59:58;;;;;;;21.08;14.07;;;;;;;;;;5040091;28;20203;-63
2023/01/20 09:02:27;;;;;;;25.42;13.60;;;;;;;;;;5045997;28;20201;-63
2023/01/20 09:04:55;;;;;;;22.52;14.63;;;;;;;;;;5048611;28;20201;-63
2023/01/20 09:07:23;;;;;;;23.80;13.00;;;;;;;;;;5045404;28;20201;-63
2023/01/20 09:09:52;;;;;;;20.85;14.77;;;;;;;;;;5036288;28;20197;-64
2023/01/20 09:12:20;;;;;;;21.48;13.05;;;;;;;;;;5039163;28;20197;-62
2023/01/20 09:14:49;;;;;;;21.05;12.75;;;;;;;;;;5052511;28;20679;-63
2023/01/20 09:17:17;;;;;;;20.17;12.82;;;;;;;;;;5054981;28;20212;-62
2023/01/20 09:19:45;;;;;;;20.42;13.45;;;;;;;;;;5046343;28;20216;-62
2023/01/20 09:22:13;;;;;;;17.27;11.40;;;;;;;;;;5034397;28;20434;-62
2023/01/20 09:24:41;;;;;;;18.30;11.07;;;;;;;;;;5046322;28;20212;-63
2023/01/20 09:27:09;;;;;;;21.60;12.10;;;;;;;;;;5034538;28;20526;-64
2023/01/20 09:29:37;;;;;;;15.45;10.23;;;;;;;;;;5035073;28;20198;-64
2023/01/20 09:32:06;;;;;;;14.70;10.38;;;;;;;;;;5034740;28;20213;-65
2023/01/20 09:34:34;;;;;;;17.17;10.55;;;;;;;;;;5036128;28;20209;-66
2023/01/20 09:45:24;;;;;;;12.73;10.27;;;;;;;;;;5041868;28;20197;-63
2023/01/20 09:47:55;;;;;;;12.93;9.30;;;;;;;;;;5037792;28;20535;-64
2023/01/20 09:53:25;;;;;;;13.27;9.60;;;;;;;;;;5038614;28;20181;-63
2023/01/20 09:55:54;;;;;;;13.98;10.10;;;;;;;;;;5048156;28;20201;-63
2023/01/20 09:58:26;;;;;;;13.70;10.10;;;;;;;;;;5050111;28;20714;-63
2023/01/20 10:00:58;;;;;;;13.02;9.57;;;;;;;;;;5053634;28;20185;-64
2023/01/20 10:03:35;;;;;;;17.33;10.63;;;;;;;;;;5051485;28;20197;-64
2023/01/20 10:06:08;;;;;;;17.55;9.82;;;;;;;;;;5033755;28;20655;-65
2023/01/20 10:08:41;;;;;;;13.30;9.45;;;;;;;;;;5051995;28;20203;-63
2023/01/20 10:11:10;;;;;;;15.18;10.73;;;;;;;;;;5052155;28;20534;-64
2023/01/20 10:13:46;;;;;;;12.93;9.35;;;;;;;;;;5047097;28;20201;-64
2023/01/20 10:16:22;;;;;;;14.35;10.07;;;;;;;;;;5053814;28;20236;-63
2023/01/20 10:18:56;;;;;;;14.00;9.23;;;;;;;;;;5052633;28;20655;-64
2023/01/20 10:21:28;;;;;;;13.13;9.13;;;;;;;;;;5042423;28;20188;-64
2023/01/20 10:23:59;;;;;;;18.35;10.02;;;;;;;;;;5051886;28;20783;-64
2023/01/20 10:26:30;;;;;;;17.00;9.93;;;;;;;;;;5039153;28;20193;-64
2023/01/20 10:29:00;;;;;;;15.32;10.30;;;;;;;;;;5034856;28;20288;-63
2023/01/20 10:31:29;;;;;;;14.93;9.30;;;;;;;;;;5041915;28;20549;-64
2023/01/20 10:34:01;;;;;;;11.15;8.85;;;;;;;;;;5034778;28;20202;-64
2023/01/20 10:36:30;;;;;;;13.55;9.63;;;;;;;;;;5043829;28;20194;-64
2023/01/20 10:38:59;;;;;;;19.30;10.50;;;;;;;;;;5034945;28;20224;-65
2023/01/20 10:41:32;;;;;;;15.20;10.02;;;;;;;;;;5052394;28;20209;-62
2023/01/20 10:44:00;;;;;;;14.35;9.07;;;;;;;;;;5047838;28;20198;-63
2023/01/20 10:46:35;;;;;;;10.20;7.75;;;;;;;;;;5034365;28;20216;-61
2023/01/20 10:49:17;;;;;;;12.80;9.15;;;;;;;;;;5036630;28;20192;-66
2023/01/20 10:51:48;;;;;;;10.38;7.35;;;;;;;;;;5051652;28;20200;-62
2023/01/20 10:54:22;;;;;;;9.80;7.95;;;;;;;;;;5049983;28;20207;-63
2023/01/20 10:56:53;;;;;;;9.18;7.70;;;;;;;;;;5051512;28;20196;-63
2023/01/20 10:59:26;;;;;;;17.38;8.55;;;;;;;;;;5046736;28;20220;-63
2023/01/20 11:01:55;;;;;;;9.95;7.82;;;;;;;;;;5050691;28;20199;-63
2023/01/20 11:04:24;;;;;;;8.80;7.25;;;;;;;;;;5040024;28;20211;-64
2023/01/20 11:06:55;;;;;;;15.57;8.82;;;;;;;;;;5046644;28;20216;-64
2023/01/20 11:09:33;;;;;;;12.77;7.80;;;;;;;;;;5048354;28;20192;-63
2023/01/20 11:12:02;;;;;;;13.27;8.13;;;;;;;;;;5043060;28;20189;-64
2023/01/20 11:14:31;;;;;;;14.23;7.75;;;;;;;;;;5050881;28;20568;-63
2023/01/20 11:17:01;;;;;;;13.02;8.23;;;;;;;;;;5048552;28;20201;-63
2023/01/20 11:19:44;;;;;;;15.85;7.57;;;;;;;;;;5046127;28;20559;-64
2023/01/20 11:22:12;;;;;;;10.48;7.82;;;;;;;;;;5042437;28;20217;-63
2023/01/20 11:24:43;;;;;;;12.18;8.65;;;;;;;;;;5032419;28;20209;-63
2023/01/20 11:27:13;;;;;;;12.68;7.75;;;;;;;;;;5038427;28;20200;-63
2023/01/20 11:29:42;;;;;;;12.63;7.85;;;;;;;;;;5051611;28;20196;-63
2023/01/20 11:32:31;;;;;;;13.73;7.75;;;;;;;;;;5053091;28;20208;-63
2023/01/20 11:35:00;;;;;;;10.95;7.40;;;;;;;;;;5049583;28;20207;-64
2023/01/20 11:37:35;;;;;;;11.00;8.25;;;;;;;;;;5034102;28;20201;-62
2023/01/20 11:40:15;;;;;;;16.02;8.70;;;;;;;;;;5033417;28;20668;-64
2023/01/20 11:42:47;;;;;;;14.05;8.65;;;;;;;;;;5048937;28;20559;-64
2023/01/20 11:45:26;;;;;;;14.65;9.35;;;;;;;;;;5047859;28;20201;-63
2023/01/20 11:48:02;;;;;;;16.02;9.43;;;;;;;;;;5049464;28;20196;-63
2023/01/20 11:50:33;;;;;;;17.52;11.30;;;;;;;;;;5039334;28;20747;-64
2023/01/20 11:53:17;;;;;;;12.98;10.18;;;;;;;;;;5034089;28;20541;-63
2023/01/20 11:55:47;;;;;;;12.65;10.63;;;;;;;;;;5042083;28;20292;-64
2023/01/20 11:58:17;;;;;;;16.20;11.10;;;;;;;;;;5025152;28;20225;-63
2023/01/20 12:00:45;;;;;;;14.40;11.23;;;;;;;;;;5040886;28;20212;-63
2023/01/20 12:03:26;;;;;;;12.95;10.13;;;;;;;;;;5039865;28;20197;-62
2023/01/20 12:05:57;;;;;;;24.83;10.32;;;;;;;;;;5037968;28;20189;-62
2023/01/20 12:08:28;;;;;;;14.85;8.00;;;;;;;;;;5039676;28;20565;-63
2023/01/20 12:10:59;;;;;;;13.00;8.98;;;;;;;;;;5039951;28;20195;-63
2023/01/20 12:13:29;;;;;;;13.23;10.10;;;;;;;;;;5040622;28;20196;-63
2023/01/20 12:16:00;;;;;;;13.25;10.82;;;;;;;;;;5035616;28;20225;-62
2023/01/20 12:18:34;;;;;;;12.50;9.23;;;;;;;;;;5038854;28;20212;-64
2023/01/20 12:21:06;;;;;;;12.43;8.93;;;;;;;;;;5037219;28;20239;-63
2023/01/20 12:23:44;;;;;;;15.88;10.45;;;;;;;;;;5038197;28;20832;-64
2023/01/20 12:26:13;;;;;;;11.80;9.40;;;;;;;;;;5037685;28;20190;-65
2023/01/20 12:28:44;;;;;;;14.43;9.80;;;;;;;;;;5039739;28;20208;-64
2023/01/20 12:31:13;;;;;;;12.30;10.20;;;;;;;;;;5037969;28;20189;-63
2023/01/20 12:33:43;;;;;;;15.90;11.70;;;;;;;;;;5038440;28;20192;-64
2023/01/20 12:36:26;;;;;;;16.70;10.73;;;;;;;;;;5041389;28;20266;-64
2023/01/20 12:39:07;;;;;;;17.30;10.27;;;;;;;;;;5039630;28;20216;-63
2023/01/20 12:41:45;;;;;;;18.63;11.40;;;;;;;;;;5039323;28;20197;-64
2023/01/20 12:44:20;;;;;;;14.88;11.63;;;;;;;;;;5035927;28;20578;-63
2023/01/20 12:46:50;;;;;;;14.60;11.18;;;;;;;;;;5040843;28;20204;-63
2023/01/20 12:49:34;;;;;;;14.75;10.13;;;;;;;;;;5047124;28;20204;-62
2023/01/20 12:52:06;;;;;;;12.55;9.30;;;;;;;;;;5039040;28;20197;-62
2023/01/20 12:54:45;;;;;;;12.15;10.45;;;;;;;;;;5036732;28;20562;-63
2023/01/20 12:57:20;;;;;;;13.60;10.82;;;;;;;;;;5046639;28;20204;-62
2023/01/20 12:59:54;;;;;;;12.73;10.63;;;;;;;;;;5044753;28;20646;-64
2023/01/20 13:02:36;;;;;;;11.63;9.43;;;;;;;;;;5040772;28;20212;-65
2023/01/20 13:05:09;;;;;;;12.57;9.95;;;;;;;;;;5037781;28;20209;-63
2023/01/20 13:07:54;;;;;;;14.18;10.43;;;;;;;;;;5042624;28;20548;-63
2023/01/20 13:10:28;;;;;;;10.60;8.75;;;;;;;;;;5037014;28;20184;-64
2023/01/20 13:12:59;;;;;;;14.23;9.85;;;;;;;;;;5040621;28;20194;-63
2023/01/20 13:15:28;;;;;;;14.10;9.77;;;;;;;;;;5039297;28;20217;-64
2023/01/20 13:18:08;;;;;;;12.85;10.88;;;;;;;;;;5037771;28;20306;-63
2023/01/20 13:20:39;;;;;;;13.82;10.55;;;;;;;;;;5040503;28;20212;-63
2023/01/20 13:23:08;;;;;;;14.20;10.23;;;;;;;;;;5040859;28;20721;-64
2023/01/20 13:25:39;;;;;;;11.77;9.90;;;;;;;;;;5048656;28;20231;-65
2023/01/20 13:28:12;;;;;;;19.38;10.00;;;;;;;;;;5047688;28;20284;-63
2023/01/20 13:30:42;;;;;;;13.85;10.52;;;;;;;;;;5045499;28;20197;-63
2023/01/20 13:33:15;;;;;;;9.43;7.95;;;;;;;;;;5051850;28;20185;-63
2023/01/20 13:35:46;;;;;;;10.93;8.70;;;;;;;;;;5048042;28;20201;-63
2023/01/20 13:38:21;;;;;;;11.32;8.13;;;;;;;;;;5049413;28;20220;-63
2023/01/20 13:40:55;;;;;;;9.57;8.25;;;;;;;;;;5053038;28;20231;-63
2023/01/20 13:43:46;;;;;;;11.10;9.95;;;;;;;;;;5053902;28;20377;-63
2023/01/20 13:46:32;;;;;;;9.35;8.27;;;;;;;;;;5041902;28;20190;-64
2023/01/20 13:49:15;;;;;;;9.50;8.50;;;;;;;;;;5042690;28;20258;-63
2023/01/20 13:51:44;;;;;;;8.75;7.93;;;;;;;;;;5044856;28;20250;-63
2023/01/20 13:54:34;;;;;;;8.52;7.60;;;;;;;;;;5035468;28;20641;-64
2023/01/20 13:57:22;;;;;;;12.55;8.20;;;;;;;;;;5035358;28;20558;-64
2023/01/20 13:59:51;;;;;;;10.32;9.05;;;;;;;;;;5050526;28;20220;-64
2023/01/20 14:02:20;;;;;;;14.32;8.80;;;;;;;;;;5038355;28;20201;-62
2023/01/20 14:04:48;;;;;;;21.48;9.85;;;;;;;;;;5031837;28;20206;-63
2023/01/20 14:07:24;;;;;;;14.73;8.85;;;;;;;;;;5039790;28;20189;-64
2023/01/20 14:09:53;;;;;;;10.02;8.13;;;;;;;;;;5044015;28;20659;-63
2023/01/20 14:12:21;;;;;;;10.45;8.13;;;;;;;;;;5048509;28;20207;-64
2023/01/20 14:14:53;;;;;;;13.10;9.93;;;;;;;;;;5051891;28;20722;-63
2023/01/20 14:17:23;;;;;;;16.83;11.77;;;;;;;;;;5035604;28;20185;-63
2023/01/20 14:19:52;;;;;;;12.55;9.02;;;;;;;;;;5044496;28;20246;-63
2023/01/20 14:22:23;;;;;;;10.85;7.88;;;;;;;;;;5035883;28;20695;-65
2023/01/20 14:24:52;;;;;;;9.52;7.50;;;;;;;;;;5034287;28;20485;-63
2023/01/20 14:27:21;;;;;;;12.02;8.90;;;;;;;;;;5046988;28;20203;-63
2023/01/20 14:29:50;;;;;;;12.57;8.98;;;;;;;;;;5045319;28;20218;-63
2023/01/20 14:32:22;;;;;;;17.50;8.43;;;;;;;;;;5045179;28;20205;-63
2023/01/20 14:34:51;;;;;;;11.90;8.45;;;;;;;;;;5053079;28;20678;-63
2023/01/20 14:37:23;;;;;;;11.82;8.35;;;;;;;;;;5053042;28;20205;-63
2023/01/20 14:39:53;;;;;;;9.73;8.82;;;;;;;;;;5048699;28;20208;-63
2023/01/20 14:42:22;;;;;;;12.73;8.77;;;;;;;;;;5048495;28;20201;-63
2023/01/20 14:44:51;;;;;;;10.45;7.60;;;;;;;;;;5048323;28;20207;-63
2023/01/20 14:47:24;;;;;;;9.18;8.20;;;;;;;;;;5046009;28;20197;-63
2023/01/20 14:49:53;;;;;;;9.60;8.15;;;;;;;;;;5050362;28;20659;-64
2023/01/20 14:52:23;;;;;;;11.73;9.45;;;;;;;;;;5041852;28;20656;-63
2023/01/20 14:54:54;;;;;;;11.40;8.85;;;;;;;;;;5034372;28;20205;-62